sensor_id;sensor_type;location;lat;lon;timestamp;pressure;altitude;pressure_sealevel;temperature;humidity
79645;BME280;69117;47.148;18.954;2023-06-26T00:00:45;100494.56;;;17.03;54.20
79645;BME280;69117;47.148;18.954;2023-06-26T00:03:48;100481.59;;;17.00;54.17
79645;BME280;69117;47.148;18.954;2023-06-26T00:06:50;100489.06;;;17.19;54.34
79645;BME280;69117;47.148;18.954;2023-06-26T00:09:52;100490.88;;;17.18;54.36
79645;BME280;69117;47.148;18.954;2023-06-26T00:12:54;100478.28;;;16.98;54.42
79645;BME280;69117;47.148;18.954;2023-06-26T00:15:55;100484.63;;;16.97;54.41
79645;BME280;69117;47.148;18.954;2023-06-26T00:18:58;100490.53;;;16.92;54.44
79645;BME280;69117;47.148;18.954;2023-06-26T00:22:02;100488.94;;;16.83;54.59
79645;BME280;69117;47.148;18.954;2023-06-26T00:25:04;100483.31;;;16.78;54.66
79645;BME280;69117;47.148;18.954;2023-06-26T00:28:06;100486.50;;;16.73;54.50
79645;BME280;69117;47.148;18.954;2023-06-26T00:31:07;100499.84;;;16.73;54.70
79645;BME280;69117;47.148;18.954;2023-06-26T00:34:09;100491.19;;;16.71;54.70
79645;BME280;69117;47.148;18.954;2023-06-26T00:37:11;100489.25;;;16.65;54.65
79645;BME280;69117;47.148;18.954;2023-06-26T00:40:12;100494.28;;;16.60;54.54
79645;BME280;69117;47.148;18.954;2023-06-26T00:43:14;100491.91;;;16.65;54.67
79645;BME280;69117;47.148;18.954;2023-06-26T00:46:16;100484.28;;;16.62;54.81
79645;BME280;69117;47.148;18.954;2023-06-26T00:49:18;100488.81;;;16.76;54.91
79645;BME280;69117;47.148;18.954;2023-06-26T00:52:19;100481.13;;;16.81;54.93
79645;BME280;69117;47.148;18.954;2023-06-26T00:55:21;100484.72;;;16.88;54.88
79645;BME280;69117;47.148;18.954;2023-06-26T00:58:23;100486.00;;;16.92;54.97
79645;BME280;69117;47.148;18.954;2023-06-26T01:01:25;100480.03;;;16.90;54.84
79645;BME280;69117;47.148;18.954;2023-06-26T01:04:27;100482.69;;;16.90;54.86
79645;BME280;69117;47.148;18.954;2023-06-26T01:07:35;100467.34;;;16.92;54.89
79645;BME280;69117;47.148;18.954;2023-06-26T01:10:40;100469.44;;;16.97;54.68
79645;BME280;69117;47.148;18.954;2023-06-26T01:13:42;100462.00;;;16.92;54.85
79645;BME280;69117;47.148;18.954;2023-06-26T01:16:49;100455.84;;;16.92;54.75
79645;BME280;69117;47.148;18.954;2023-06-26T01:19:51;100452.59;;;16.82;54.83
79645;BME280;69117;47.148;18.954;2023-06-26T01:26:20;100457.56;;;16.85;55.02
79645;BME280;69117;47.148;18.954;2023-06-26T01:29:23;100453.06;;;16.85;54.76
79645;BME280;69117;47.148;18.954;2023-06-26T01:32:26;100447.44;;;16.80;54.87
79645;BME280;69117;47.148;18.954;2023-06-26T01:35:28;100451.09;;;16.79;54.69
79645;BME280;69117;47.148;18.954;2023-06-26T01:38:30;100445.66;;;16.72;54.94
79645;BME280;69117;47.148;18.954;2023-06-26T01:41:32;100436.06;;;16.63;54.79
79645;BME280;69117;47.148;18.954;2023-06-26T01:44:37;100441.22;;;16.65;54.84
79645;BME280;69117;47.148;18.954;2023-06-26T01:47:44;100440.94;;;16.60;54.89
79645;BME280;69117;47.148;18.954;2023-06-26T01:50:47;100437.44;;;16.59;54.87
79645;BME280;69117;47.148;18.954;2023-06-26T01:53:53;100436.63;;;16.59;54.72
79645;BME280;69117;47.148;18.954;2023-06-26T01:56:57;100441.50;;;16.55;54.86
79645;BME280;69117;47.148;18.954;2023-06-26T02:00:00;100439.00;;;16.54;54.84
79645;BME280;69117;47.148;18.954;2023-06-26T02:03:03;100442.41;;;16.47;54.81
79645;BME280;69117;47.148;18.954;2023-06-26T02:06:06;100428.75;;;16.42;54.77
79645;BME280;69117;47.148;18.954;2023-06-26T02:09:08;100449.66;;;16.54;54.80
79645;BME280;69117;47.148;18.954;2023-06-26T02:12:09;100446.19;;;16.53;54.82
79645;BME280;69117;47.148;18.954;2023-06-26T02:15:11;100447.44;;;16.42;54.82
79645;BME280;69117;47.148;18.954;2023-06-26T02:18:13;100451.94;;;16.42;54.76
79645;BME280;69117;47.148;18.954;2023-06-26T02:21:15;100452.00;;;16.34;54.77
79645;BME280;69117;47.148;18.954;2023-06-26T02:24:16;100443.97;;;16.19;54.76
79645;BME280;69117;47.148;18.954;2023-06-26T02:27:18;100453.03;;;16.10;54.66
79645;BME280;69117;47.148;18.954;2023-06-26T02:30:20;100460.03;;;16.11;54.83
79645;BME280;69117;47.148;18.954;2023-06-26T02:33:21;100453.97;;;15.94;54.79
79645;BME280;69117;47.148;18.954;2023-06-26T02:36:23;100458.59;;;16.00;54.68
79645;BME280;69117;47.148;18.954;2023-06-26T02:39:24;100461.44;;;15.98;54.76
79645;BME280;69117;47.148;18.954;2023-06-26T02:42:26;100462.31;;;15.91;54.69
79645;BME280;69117;47.148;18.954;2023-06-26T02:45:28;100466.66;;;15.92;54.69
79645;BME280;69117;47.148;18.954;2023-06-26T02:48:29;100469.97;;;15.94;54.68
79645;BME280;69117;47.148;18.954;2023-06-26T02:51:34;100472.16;;;15.90;54.66
79645;BME280;69117;47.148;18.954;2023-06-26T02:54:35;100470.06;;;15.77;54.73
79645;BME280;69117;47.148;18.954;2023-06-26T02:57:37;100473.78;;;15.68;54.79
79645;BME280;69117;47.148;18.954;2023-06-26T03:00:39;100468.09;;;15.63;54.75
79645;BME280;69117;47.148;18.954;2023-06-26T03:03:43;100473.78;;;15.68;54.83
79645;BME280;69117;47.148;18.954;2023-06-26T03:06:44;100479.94;;;15.69;54.89
79645;BME280;69117;47.148;18.954;2023-06-26T03:09:46;100479.09;;;15.68;54.80
79645;BME280;69117;47.148;18.954;2023-06-26T03:12:48;100482.91;;;15.74;54.83
79645;BME280;69117;47.148;18.954;2023-06-26T03:15:50;100479.72;;;15.78;54.84
79645;BME280;69117;47.148;18.954;2023-06-26T03:18:51;100480.06;;;15.75;54.95
79645;BME280;69117;47.148;18.954;2023-06-26T03:21:53;100482.56;;;15.77;55.04
79645;BME280;69117;47.148;18.954;2023-06-26T03:24:56;100485.03;;;15.78;54.77
79645;BME280;69117;47.148;18.954;2023-06-26T03:27:58;100481.53;;;15.78;54.90
79645;BME280;69117;47.148;18.954;2023-06-26T03:30:59;100479.22;;;15.75;54.83
79645;BME280;69117;47.148;18.954;2023-06-26T03:34:01;100476.75;;;15.73;54.96
79645;BME280;69117;47.148;18.954;2023-06-26T03:37:03;100486.72;;;15.79;54.93
79645;BME280;69117;47.148;18.954;2023-06-26T03:40:05;100482.69;;;15.84;54.92
79645;BME280;69117;47.148;18.954;2023-06-26T03:43:07;100485.78;;;15.95;54.82
79645;BME280;69117;47.148;18.954;2023-06-26T03:46:08;100478.78;;;15.94;54.86
79645;BME280;69117;47.148;18.954;2023-06-26T03:49:10;100493.59;;;15.97;54.98
79645;BME280;69117;47.148;18.954;2023-06-26T03:52:12;100494.22;;;16.07;54.69
79645;BME280;69117;47.148;18.954;2023-06-26T03:55:13;100498.94;;;16.20;54.82
79645;BME280;69117;47.148;18.954;2023-06-26T03:58:16;100495.50;;;16.34;54.77
79645;BME280;69117;47.148;18.954;2023-06-26T04:01:18;100493.38;;;16.53;54.59
79645;BME280;69117;47.148;18.954;2023-06-26T04:04:21;100502.59;;;16.65;54.57
79645;BME280;69117;47.148;18.954;2023-06-26T04:07:23;100489.69;;;16.77;54.32
79645;BME280;69117;47.148;18.954;2023-06-26T04:10:24;100492.38;;;16.91;54.19
79645;BME280;69117;47.148;18.954;2023-06-26T04:13:26;100505.72;;;17.06;54.21
79645;BME280;69117;47.148;18.954;2023-06-26T04:16:28;100505.91;;;17.20;54.10
79645;BME280;69117;47.148;18.954;2023-06-26T04:19:30;100504.00;;;17.28;54.07
79645;BME280;69117;47.148;18.954;2023-06-26T04:22:32;100504.06;;;17.35;53.66
79645;BME280;69117;47.148;18.954;2023-06-26T04:25:34;100504.50;;;17.53;53.71
79645;BME280;69117;47.148;18.954;2023-06-26T04:28:36;100500.78;;;17.69;53.66
79645;BME280;69117;47.148;18.954;2023-06-26T04:31:38;100488.53;;;17.75;53.68
79645;BME280;69117;47.148;18.954;2023-06-26T04:34:40;100504.75;;;17.88;53.56
79645;BME280;69117;47.148;18.954;2023-06-26T04:37:44;100493.28;;;17.94;53.47
79645;BME280;69117;47.148;18.954;2023-06-26T04:40:47;100498.97;;;18.06;53.44
79645;BME280;69117;47.148;18.954;2023-06-26T04:43:48;100510.91;;;18.03;53.02
79645;BME280;69117;47.148;18.954;2023-06-26T04:46:50;100511.84;;;18.17;53.31
79645;BME280;69117;47.148;18.954;2023-06-26T04:49:53;100503.19;;;18.15;53.12
79645;BME280;69117;47.148;18.954;2023-06-26T04:52:56;100511.75;;;18.25;53.30
79645;BME280;69117;47.148;18.954;2023-06-26T04:55:58;100505.19;;;18.28;53.09
79645;BME280;69117;47.148;18.954;2023-06-26T04:58:59;100512.69;;;18.39;53.25
79645;BME280;69117;47.148;18.954;2023-06-26T05:02:01;100511.09;;;18.45;52.89
79645;BME280;69117;47.148;18.954;2023-06-26T05:05:03;100508.34;;;18.60;52.93
79645;BME280;69117;47.148;18.954;2023-06-26T05:08:24;100513.34;;;18.69;52.64
79645;BME280;69117;47.148;18.954;2023-06-26T05:11:27;100512.03;;;18.80;52.53
79645;BME280;69117;47.148;18.954;2023-06-26T05:14:29;100506.38;;;18.96;52.86
79645;BME280;69117;47.148;18.954;2023-06-26T05:17:31;100512.03;;;19.08;52.78
79645;BME280;69117;47.148;18.954;2023-06-26T05:20:33;100507.81;;;19.27;52.58
79645;BME280;69117;47.148;18.954;2023-06-26T05:23:35;100513.72;;;19.51;52.60
79645;BME280;69117;47.148;18.954;2023-06-26T05:26:37;100508.91;;;19.39;52.05
79645;BME280;69117;47.148;18.954;2023-06-26T05:29:39;100508.47;;;19.36;52.13
79645;BME280;69117;47.148;18.954;2023-06-26T05:32:42;100516.19;;;19.45;52.20
79645;BME280;69117;47.148;18.954;2023-06-26T05:35:48;100515.00;;;19.61;52.10
79645;BME280;69117;47.148;18.954;2023-06-26T05:38:50;100517.13;;;19.73;51.75
79645;BME280;69117;47.148;18.954;2023-06-26T05:41:52;100516.97;;;19.87;51.73
79645;BME280;69117;47.148;18.954;2023-06-26T05:44:53;100497.84;;;20.04;51.71
79645;BME280;69117;47.148;18.954;2023-06-26T05:47:55;100505.09;;;20.17;51.18
79645;BME280;69117;47.148;18.954;2023-06-26T05:50:57;100492.69;;;20.09;50.90
79645;BME280;69117;47.148;18.954;2023-06-26T05:53:59;100506.78;;;20.31;51.14
79645;BME280;69117;47.148;18.954;2023-06-26T05:57:01;100509.47;;;20.44;50.80
79645;BME280;69117;47.148;18.954;2023-06-26T06:00:04;100514.25;;;20.69;50.96
79645;BME280;69117;47.148;18.954;2023-06-26T06:03:11;100506.41;;;20.74;50.71
79645;BME280;69117;47.148;18.954;2023-06-26T06:06:13;100503.50;;;20.89;50.78
79645;BME280;69117;47.148;18.954;2023-06-26T06:09:15;100509.00;;;21.27;51.52
79645;BME280;69117;47.148;18.954;2023-06-26T06:12:17;100506.53;;;21.45;51.37
79645;BME280;69117;47.148;18.954;2023-06-26T06:15:18;100508.16;;;21.46;50.87
79645;BME280;69117;47.148;18.954;2023-06-26T06:18:20;100514.88;;;21.69;51.23
79645;BME280;69117;47.148;18.954;2023-06-26T06:21:22;100505.28;;;21.86;51.31
79645;BME280;69117;47.148;18.954;2023-06-26T06:24:23;100515.97;;;22.06;50.64
79645;BME280;69117;47.148;18.954;2023-06-26T06:27:25;100512.84;;;22.09;51.17
79645;BME280;69117;47.148;18.954;2023-06-26T06:30:27;100514.72;;;22.02;50.25
79645;BME280;69117;47.148;18.954;2023-06-26T06:33:44;100511.69;;;22.30;50.47
79645;BME280;69117;47.148;18.954;2023-06-26T06:36:46;100505.94;;;22.52;50.27
79645;BME280;69117;47.148;18.954;2023-06-26T06:39:48;100512.03;;;22.66;49.64
79645;BME280;69117;47.148;18.954;2023-06-26T06:42:50;100516.59;;;22.65;49.96
79645;BME280;69117;47.148;18.954;2023-06-26T06:45:51;100519.66;;;23.00;49.81
79645;BME280;69117;47.148;18.954;2023-06-26T06:48:53;100519.84;;;22.99;80.86
79645;BME280;69117;47.148;18.954;2023-06-26T06:54:57;100520.78;;;22.86;76.29
79645;BME280;69117;47.148;18.954;2023-06-26T06:58:06;100515.69;;;23.03;77.72
79645;BME280;69117;47.148;18.954;2023-06-26T07:01:12;100512.41;;;23.38;74.95
79645;BME280;69117;47.148;18.954;2023-06-26T07:04:13;100522.13;;;23.20;76.94
79645;BME280;69117;47.148;18.954;2023-06-26T07:07:18;100518.78;;;23.25;76.71
79645;BME280;69117;47.148;18.954;2023-06-26T07:10:20;100514.34;;;23.86;74.31
79645;BME280;69117;47.148;18.954;2023-06-26T07:13:22;100517.41;;;23.89;75.69
79645;BME280;69117;47.148;18.954;2023-06-26T07:16:24;100509.34;;;23.71;75.63
79645;BME280;69117;47.148;18.954;2023-06-26T07:19:26;100512.47;;;23.49;74.71
79645;BME280;69117;47.148;18.954;2023-06-26T07:22:28;100513.97;;;23.82;74.40
79645;BME280;69117;47.148;18.954;2023-06-26T07:25:29;100513.16;;;24.12;71.79
79645;BME280;69117;47.148;18.954;2023-06-26T07:28:31;100498.25;;;24.51;73.76
79645;BME280;69117;47.148;18.954;2023-06-26T07:31:33;100503.91;;;24.73;72.62
79645;BME280;69117;47.148;18.954;2023-06-26T07:34:34;100508.19;;;24.39;72.82
79645;BME280;69117;47.148;18.954;2023-06-26T07:37:36;100503.88;;;24.50;68.47
79645;BME280;69117;47.148;18.954;2023-06-26T07:40:38;100509.13;;;24.44;71.48
79645;BME280;69117;47.148;18.954;2023-06-26T07:43:40;100514.00;;;24.78;67.93
79645;BME280;69117;47.148;18.954;2023-06-26T07:46:41;100510.13;;;24.97;67.80
79645;BME280;69117;47.148;18.954;2023-06-26T07:49:43;100502.69;;;25.40;66.43
79645;BME280;69117;47.148;18.954;2023-06-26T07:52:45;100502.00;;;24.74;67.85
79645;BME280;69117;47.148;18.954;2023-06-26T07:55:47;100498.84;;;25.00;67.56
79645;BME280;69117;47.148;18.954;2023-06-26T07:58:48;100507.31;;;25.16;67.87
79645;BME280;69117;47.148;18.954;2023-06-26T08:01:51;100502.75;;;25.16;65.77
79645;BME280;69117;47.148;18.954;2023-06-26T08:04:53;100503.78;;;25.03;67.11
79645;BME280;69117;47.148;18.954;2023-06-26T08:07:55;100511.00;;;25.62;67.59
79645;BME280;69117;47.148;18.954;2023-06-26T08:10:56;100507.91;;;25.70;66.90
79645;BME280;69117;47.148;18.954;2023-06-26T08:13:58;100502.25;;;25.83;65.62
79645;BME280;69117;47.148;18.954;2023-06-26T08:17:00;100507.56;;;25.66;65.73
79645;BME280;69117;47.148;18.954;2023-06-26T08:20:02;100501.53;;;26.04;62.79
79645;BME280;69117;47.148;18.954;2023-06-26T08:23:04;100508.75;;;25.99;64.05
79645;BME280;69117;47.148;18.954;2023-06-26T08:26:06;100508.16;;;26.25;64.33
79645;BME280;69117;47.148;18.954;2023-06-26T08:29:07;100505.69;;;26.41;62.69
79645;BME280;69117;47.148;18.954;2023-06-26T08:32:13;100508.56;;;26.34;64.63
79645;BME280;69117;47.148;18.954;2023-06-26T08:35:14;100507.16;;;26.32;62.08
79645;BME280;69117;47.148;18.954;2023-06-26T08:38:16;100501.16;;;26.58;63.83
79645;BME280;69117;47.148;18.954;2023-06-26T08:41:22;100501.16;;;26.75;59.94
79645;BME280;69117;47.148;18.954;2023-06-26T08:44:23;100503.91;;;26.80;57.22
79645;BME280;69117;47.148;18.954;2023-06-26T08:47:26;100498.59;;;26.68;57.71
79645;BME280;69117;47.148;18.954;2023-06-26T08:50:30;100503.69;;;26.65;55.59
79645;BME280;69117;47.148;18.954;2023-06-26T08:56:56;100501.00;;;27.21;55.21
79645;BME280;69117;47.148;18.954;2023-06-26T08:59:59;100503.50;;;26.71;56.40
79645;BME280;69117;47.148;18.954;2023-06-26T09:03:03;100497.84;;;26.56;54.33
79645;BME280;69117;47.148;18.954;2023-06-26T09:06:05;100489.38;;;26.86;55.46
79645;BME280;69117;47.148;18.954;2023-06-26T09:09:07;100494.38;;;26.78;50.34
79645;BME280;69117;47.148;18.954;2023-06-26T09:12:09;100497.16;;;27.00;50.10
79645;BME280;69117;47.148;18.954;2023-06-26T09:15:14;100482.66;;;27.77;51.40
79645;BME280;69117;47.148;18.954;2023-06-26T09:18:17;100494.81;;;27.91;49.66
79645;BME280;69117;47.148;18.954;2023-06-26T09:21:21;100496.78;;;27.52;48.43
79645;BME280;69117;47.148;18.954;2023-06-26T09:24:25;100496.38;;;27.65;48.91
79645;BME280;69117;47.148;18.954;2023-06-26T09:27:27;100489.66;;;27.46;47.29
79645;BME280;69117;47.148;18.954;2023-06-26T09:30:32;100491.63;;;28.26;50.69
79645;BME280;69117;47.148;18.954;2023-06-26T09:33:38;100482.66;;;27.77;48.92
79645;BME280;69117;47.148;18.954;2023-06-26T09:36:40;100487.50;;;27.70;47.51
79645;BME280;69117;47.148;18.954;2023-06-26T09:39:44;100479.81;;;28.43;46.58
79645;BME280;69117;47.148;18.954;2023-06-26T09:42:46;100480.91;;;28.42;44.25
79645;BME280;69117;47.148;18.954;2023-06-26T09:45:47;100491.03;;;28.24;47.29
79645;BME280;69117;47.148;18.954;2023-06-26T09:48:49;100488.63;;;28.28;47.95
79645;BME280;69117;47.148;18.954;2023-06-26T09:51:52;100480.41;;;28.87;49.91
79645;BME280;69117;47.148;18.954;2023-06-26T09:55:14;100477.94;;;28.86;43.29
79645;BME280;69117;47.148;18.954;2023-06-26T09:58:16;100478.97;;;29.17;41.96
79645;BME280;69117;47.148;18.954;2023-06-26T10:01:18;100472.25;;;29.50;43.47
79645;BME280;69117;47.148;18.954;2023-06-26T10:04:20;100465.03;;;29.86;43.11
79645;BME280;69117;47.148;18.954;2023-06-26T10:07:23;100469.78;;;29.43;40.30
79645;BME280;69117;47.148;18.954;2023-06-26T10:10:26;100475.13;;;30.01;41.27
79645;BME280;69117;47.148;18.954;2023-06-26T10:13:38;100467.84;;;29.34;39.61
79645;BME280;69117;47.148;18.954;2023-06-26T10:16:41;100460.31;;;29.56;39.71
79645;BME280;69117;47.148;18.954;2023-06-26T10:19:45;100461.50;;;29.81;41.61
79645;BME280;69117;47.148;18.954;2023-06-26T10:22:47;100466.03;;;28.97;42.56
79645;BME280;69117;47.148;18.954;2023-06-26T10:25:51;100469.22;;;28.14;44.73
79645;BME280;69117;47.148;18.954;2023-06-26T10:28:54;100469.53;;;27.91;44.63
79645;BME280;69117;47.148;18.954;2023-06-26T10:31:58;100449.56;;;27.09;44.89
79645;BME280;69117;47.148;18.954;2023-06-26T10:35:06;100457.09;;;29.02;41.79
79645;BME280;69117;47.148;18.954;2023-06-26T10:38:08;100459.56;;;29.76;41.17
79645;BME280;69117;47.148;18.954;2023-06-26T10:41:10;100452.75;;;29.63;41.98
79645;BME280;69117;47.148;18.954;2023-06-26T10:44:16;100454.97;;;29.92;38.82
79645;BME280;69117;47.148;18.954;2023-06-26T10:47:31;100459.59;;;30.07;40.30
79645;BME280;69117;47.148;18.954;2023-06-26T10:50:33;100452.00;;;29.15;41.66
79645;BME280;69117;47.148;18.954;2023-06-26T10:53:41;100456.69;;;28.08;43.25
79645;BME280;69117;47.148;18.954;2023-06-26T10:56:49;100470.25;;;27.81;45.16
79645;BME280;69117;47.148;18.954;2023-06-26T11:00:09;100456.63;;;30.49;40.87
79645;BME280;69117;47.148;18.954;2023-06-26T11:03:24;100453.34;;;30.78;38.95
79645;BME280;69117;47.148;18.954;2023-06-26T11:06:26;100453.53;;;31.07;37.77
79645;BME280;69117;47.148;18.954;2023-06-26T11:09:28;100456.59;;;30.75;38.43
79645;BME280;69117;47.148;18.954;2023-06-26T11:12:37;100463.16;;;30.64;39.38
79645;BME280;69117;47.148;18.954;2023-06-26T11:15:40;100452.03;;;31.45;38.63
79645;BME280;69117;47.148;18.954;2023-06-26T11:18:45;100466.28;;;32.26;35.42
79645;BME280;69117;47.148;18.954;2023-06-26T11:21:47;100453.47;;;31.22;36.52
79645;BME280;69117;47.148;18.954;2023-06-26T11:24:53;100454.06;;;31.14;34.95
79645;BME280;69117;47.148;18.954;2023-06-26T11:27:55;100448.44;;;32.00;36.49
79645;BME280;69117;47.148;18.954;2023-06-26T11:30:57;100452.03;;;32.29;34.69
79645;BME280;69117;47.148;18.954;2023-06-26T11:34:00;100442.16;;;32.63;32.68
79645;BME280;69117;47.148;18.954;2023-06-26T11:37:02;100445.47;;;31.86;36.04
79645;BME280;69117;47.148;18.954;2023-06-26T11:40:20;100444.91;;;30.03;39.01
79645;BME280;69117;47.148;18.954;2023-06-26T11:43:22;100435.47;;;31.16;39.39
79645;BME280;69117;47.148;18.954;2023-06-26T11:46:24;100431.75;;;31.57;37.35
79645;BME280;69117;47.148;18.954;2023-06-26T11:49:28;100432.63;;;31.91;35.22
79645;BME280;69117;47.148;18.954;2023-06-26T11:52:32;100432.72;;;32.15;33.96
79645;BME280;69117;47.148;18.954;2023-06-26T11:55:41;100432.91;;;32.24;33.49
79645;BME280;69117;47.148;18.954;2023-06-26T12:05:08;100422.06;;;32.96;32.46
79645;BME280;69117;47.148;18.954;2023-06-26T12:08:10;100417.28;;;33.07;35.66
79645;BME280;69117;47.148;18.954;2023-06-26T12:11:12;100406.19;;;32.98;31.85
79645;BME280;69117;47.148;18.954;2023-06-26T12:14:15;100415.78;;;30.29;36.21
79645;BME280;69117;47.148;18.954;2023-06-26T12:17:17;100417.47;;;31.65;36.24
79645;BME280;69117;47.148;18.954;2023-06-26T12:20:23;100419.75;;;31.97;34.33
79645;BME280;69117;47.148;18.954;2023-06-26T12:23:32;100408.56;;;33.05;32.13
79645;BME280;69117;47.148;18.954;2023-06-26T12:26:35;100402.28;;;33.99;30.77
79645;BME280;69117;47.148;18.954;2023-06-26T12:29:53;100399.31;;;34.28;33.31
79645;BME280;69117;47.148;18.954;2023-06-26T12:32:55;100401.78;;;33.40;30.80
79645;BME280;69117;47.148;18.954;2023-06-26T12:35:57;100410.41;;;33.71;36.35
79645;BME280;69117;47.148;18.954;2023-06-26T12:39:00;100408.25;;;33.87;33.54
79645;BME280;69117;47.148;18.954;2023-06-26T12:42:02;100409.44;;;34.47;32.07
79645;BME280;69117;47.148;18.954;2023-06-26T12:45:11;100401.84;;;33.16;30.99
79645;BME280;69117;47.148;18.954;2023-06-26T12:48:44;100407.03;;;33.18;31.67
79645;BME280;69117;47.148;18.954;2023-06-26T12:51:48;100401.16;;;32.81;33.32
79645;BME280;69117;47.148;18.954;2023-06-26T12:54:54;100396.03;;;33.61;31.52
79645;BME280;69117;47.148;18.954;2023-06-26T12:57:58;100403.88;;;31.99;33.36
79645;BME280;69117;47.148;18.954;2023-06-26T13:01:00;100416.81;;;32.23;32.94
79645;BME280;69117;47.148;18.954;2023-06-26T13:04:02;100395.72;;;33.24;31.98
79645;BME280;69117;47.148;18.954;2023-06-26T13:07:06;100392.59;;;33.88;32.65
79645;BME280;69117;47.148;18.954;2023-06-26T13:10:08;100398.06;;;32.88;33.87
79645;BME280;69117;47.148;18.954;2023-06-26T13:13:10;100389.13;;;33.25;31.80
79645;BME280;69117;47.148;18.954;2023-06-26T13:16:12;100397.06;;;32.55;31.88
79645;BME280;69117;47.148;18.954;2023-06-26T13:19:15;100392.22;;;30.84;36.04
79645;BME280;69117;47.148;18.954;2023-06-26T13:22:16;100398.00;;;31.77;33.14
79645;BME280;69117;47.148;18.954;2023-06-26T13:25:18;100378.47;;;33.24;34.58
79645;BME280;69117;47.148;18.954;2023-06-26T13:28:20;100384.75;;;33.81;32.13
79645;BME280;69117;47.148;18.954;2023-06-26T13:31:21;100378.22;;;33.96;30.46
79645;BME280;69117;47.148;18.954;2023-06-26T13:34:24;100389.19;;;34.42;29.59
79645;BME280;69117;47.148;18.954;2023-06-26T13:37:29;100367.25;;;35.12;28.49
79645;BME280;69117;47.148;18.954;2023-06-26T13:40:31;100372.66;;;34.75;27.88
79645;BME280;69117;47.148;18.954;2023-06-26T13:43:32;100369.91;;;34.75;28.89
79645;BME280;69117;47.148;18.954;2023-06-26T13:46:34;100374.00;;;35.28;28.49
79645;BME280;69117;47.148;18.954;2023-06-26T13:49:36;100371.69;;;36.03;27.97
79645;BME280;69117;47.148;18.954;2023-06-26T13:52:38;100375.69;;;35.01;28.81
79645;BME280;69117;47.148;18.954;2023-06-26T13:55:40;100364.78;;;35.10;27.55
79645;BME280;69117;47.148;18.954;2023-06-26T13:58:42;100357.22;;;35.29;30.38
79645;BME280;69117;47.148;18.954;2023-06-26T14:01:44;100362.97;;;34.92;29.75
79645;BME280;69117;47.148;18.954;2023-06-26T14:04:45;100361.91;;;33.86;28.61
79645;BME280;69117;47.148;18.954;2023-06-26T14:07:47;100356.47;;;34.87;30.23
79645;BME280;69117;47.148;18.954;2023-06-26T14:10:49;100361.53;;;35.58;30.49
79645;BME280;69117;47.148;18.954;2023-06-26T14:13:52;100363.28;;;35.54;29.54
79645;BME280;69117;47.148;18.954;2023-06-26T14:16:53;100350.16;;;35.73;28.99
79645;BME280;69117;47.148;18.954;2023-06-26T14:19:55;100349.66;;;36.56;27.26
79645;BME280;69117;47.148;18.954;2023-06-26T14:22:57;100347.75;;;36.65;27.46
79645;BME280;69117;47.148;18.954;2023-06-26T14:25:59;100356.22;;;35.84;29.00
79645;BME280;69117;47.148;18.954;2023-06-26T14:29:00;100353.81;;;34.96;26.36
79645;BME280;69117;47.148;18.954;2023-06-26T14:32:03;100361.34;;;34.77;27.13
79645;BME280;69117;47.148;18.954;2023-06-26T14:35:05;100345.66;;;35.55;30.18
79645;BME280;69117;47.148;18.954;2023-06-26T14:38:06;100357.81;;;35.85;29.27
79645;BME280;69117;47.148;18.954;2023-06-26T14:41:08;100354.50;;;35.52;26.92
79645;BME280;69117;47.148;18.954;2023-06-26T14:44:10;100342.25;;;34.58;28.39
79645;BME280;69117;47.148;18.954;2023-06-26T14:47:13;100347.16;;;34.75;29.88
79645;BME280;69117;47.148;18.954;2023-06-26T14:50:16;100351.16;;;35.19;30.67
79645;BME280;69117;47.148;18.954;2023-06-26T14:53:17;100340.56;;;35.26;29.24
79645;BME280;69117;47.148;18.954;2023-06-26T14:56:19;100330.25;;;34.26;28.92
79645;BME280;69117;47.148;18.954;2023-06-26T14:59:21;100327.63;;;35.49;26.44
79645;BME280;69117;47.148;18.954;2023-06-26T15:02:22;100333.94;;;35.49;26.25
79645;BME280;69117;47.148;18.954;2023-06-26T15:05:24;100337.88;;;36.33;26.14
79645;BME280;69117;47.148;18.954;2023-06-26T15:08:26;100331.13;;;35.86;28.34
79645;BME280;69117;47.148;18.954;2023-06-26T15:11:28;100331.38;;;35.98;27.12
79645;BME280;69117;47.148;18.954;2023-06-26T15:14:30;100326.84;;;35.71;27.54
79645;BME280;69117;47.148;18.954;2023-06-26T15:17:32;100323.03;;;35.58;26.79
79645;BME280;69117;47.148;18.954;2023-06-26T15:20:33;100324.66;;;36.13;27.45
79645;BME280;69117;47.148;18.954;2023-06-26T15:23:35;100317.44;;;35.49;29.03
79645;BME280;69117;47.148;18.954;2023-06-26T15:26:37;100305.16;;;36.23;27.78
79645;BME280;69117;47.148;18.954;2023-06-26T15:29:38;100312.44;;;35.96;26.10
79645;BME280;69117;47.148;18.954;2023-06-26T15:32:40;100313.88;;;36.65;26.47
79645;BME280;69117;47.148;18.954;2023-06-26T15:35:42;100305.28;;;36.18;26.31
79645;BME280;69117;47.148;18.954;2023-06-26T15:38:43;100312.16;;;35.75;28.11
79645;BME280;69117;47.148;18.954;2023-06-26T15:41:45;100315.47;;;35.41;28.21
79645;BME280;69117;47.148;18.954;2023-06-26T15:44:47;100310.84;;;35.50;27.70
79645;BME280;69117;47.148;18.954;2023-06-26T15:47:49;100320.94;;;36.09;26.49
79645;BME280;69117;47.148;18.954;2023-06-26T15:50:51;100305.84;;;35.52;28.49
79645;BME280;69117;47.148;18.954;2023-06-26T15:53:53;100311.69;;;36.05;27.74
79645;BME280;69117;47.148;18.954;2023-06-26T15:56:55;100307.56;;;35.62;27.18
79645;BME280;69117;47.148;18.954;2023-06-26T15:59:56;100308.56;;;35.07;29.67